Lovell Field
KCHA : rendu visible

Aérodrome :











RETROUVEZ-NOUS SUR...

 
LOGIN :

S'inscrire | Disclaimer

   EN    FR    IT 

 









Légende :    VFR   VFR Marginal   IFR   IFR Intensif   IFR Très Intensif
Visi : 
Plafond : 
>= 8 km
>= 3000ft
5 à 8 km
1000 à 3000 ft
1500m à 5 km
500 à 1000 ft
800 à 1500m
200 à 500 ft
< 800m
< 200 ft
Symboles :   Orages  Brouillard  Fortes neiges  Fortes précipitations  Vent > 20 kt






- Altitude de l'aérodrome : 683 ft
- Code IATA : CHA


KCHA - Lovell Field

DERNIER METAR :
  • 230153Z 00000KT 10SM OVC170 03/M04 A3030 RMK AO2 SLP266 T00281044 $

METARs EXPIRÉS :
  • 230053Z 01003KT 10SM SCT200 OVC250 04/M07 A3029 RMK AO2 SLP261 T00441067 $
  • 222353Z 04003KT 10SM SCT200 OVC250 05/M07 A3028 RMK AO2 SLP260 T00501072 10078 20033 56005 $

TAF KCHA
Valide du 23 à 00h jusqu'au 24 à 00h UTC


222331Z 2300/2324 00000KT P6SM BKN200
FM231900 VRB03KT 5SM BR OVC025
PROB30 2319/2323 2SM -SHRA OVC015
FM232300 10004KT 5SM -SHRA OVC015



MET'MAP, la Météo Aéronautique d'un coup d'oeil ! - Copyright ORBIFLY Décembre 2007 - Disclaimer

ORBIFLY MET'MAP TEAM :

Programmation & Développement : Alexandra Zaïnal
Sur une idée originale de : Baudouin d'Aumeries
Assistance à la programmation : Marc-Olivier Méhu
Soutien technique & logistique : Manuel Goepfert

Contact : metmap@orbifly.com




SOURCES & CREDITS :

   NOAA       Earth
Advisory